Terminal Aerodrome Forecast
Issued by NWS

Home | Current Version | Previous Version | Text Only | Print | Product List | Glossary On
Versions: 1 2 3 4 5 6 7 8 9 10 11 12 13 14 15
000
FTUS46 KHNX 290545
TAFMER
TAF
KMER 290545Z 2906/3006 00000KT 3SM BR SKC
      TEMPO 2912/2916 1SM BR
     FM291600 15006KT 4SM BR BKN070 PROB30 2916/2922 -RA
     FM292200 VRB03KT 4SM -RA BR BKN070=

USA.gov is the U.S. government's official web portal to all federal, state and local government web resources and services.